Time;durP1;ratioP1;P1;durP2;ratioP2;P2;SDS_P1;SDS_P2;PMS_P1;PMS_P2;Temp;Humidity;BMP_temperature;BMP_pressure;BME280_temperature;BME280_humidity;BME280_pressure;Samples;Min_cycle;Max_cycle;Signal;HPM_P1;HPM_P2
2024/01/29 00:00:49;;;;;;;6.95;6.18;;;3.60;99.90;;;;;;5030741;28;20208;-83
2024/01/29 00:03:14;;;;;;;8.17;6.40;;;3.60;99.90;;;;;;5016605;28;20189;-83
2024/01/29 00:05:40;;;;;;;6.50;5.90;;;3.40;99.90;;;;;;5049386;28;20467;-83
2024/01/29 00:08:06;;;;;;;8.43;7.40;;;3.80;99.90;;;;;;5015607;28;20210;-83
2024/01/29 00:10:32;;;;;;;7.40;6.67;;;3.80;99.90;;;;;;5026361;28;20197;-83
2024/01/29 00:12:57;;;;;;;8.97;7.67;;;4.10;99.90;;;;;;5026237;28;20195;-83
2024/01/29 00:15:23;;;;;;;11.27;6.90;;;4.00;99.90;;;;;;5014749;28;21921;-83
2024/01/29 00:17:48;;;;;;;7.93;7.13;;;3.50;99.90;;;;;;5030308;28;20316;-83
2024/01/29 00:20:14;;;;;;;7.70;6.90;;;3.50;99.90;;;;;;5025437;28;20211;-83
2024/01/29 00:22:40;;;;;;;7.80;7.00;;;3.70;99.90;;;;;;5029527;28;20175;-83
2024/01/29 00:25:07;;;;;;;8.77;6.43;;;3.50;99.90;;;;;;5053841;28;20224;-83
2024/01/29 00:27:33;;;;;;;6.85;6.15;;;3.70;99.90;;;;;;5050555;28;20182;-83
2024/01/29 00:30:01;;;;;;;8.10;6.53;;;4.00;99.90;;;;;;5024398;28;20198;-83
2024/01/29 00:32:26;;;;;;;6.70;6.00;;;3.70;99.90;;;;;;5020461;28;20200;-83
2024/01/29 00:34:53;;;;;;;7.37;6.67;;;3.60;99.90;;;;;;5020851;28;20208;-83
2024/01/29 00:37:26;;;;;;;7.57;6.22;;;3.60;99.90;;;;;;5021178;28;20462;-83
2024/01/29 00:39:52;;;;;;;8.18;6.13;;;3.60;99.90;;;;;;5019229;28;20230;-83
2024/01/29 00:42:21;;;;;;;7.17;5.93;;;3.50;99.90;;;;;;5040883;28;20192;-83
2024/01/29 00:44:49;;;;;;;8.90;6.65;;;3.50;99.90;;;;;;5026996;28;20466;-83
2024/01/29 00:47:15;;;;;;;7.68;6.22;;;3.70;99.90;;;;;;5049926;28;20196;-83
2024/01/29 00:49:40;;;;;;;7.20;6.50;;;3.70;99.90;;;;;;5027704;28;20658;-83
2024/01/29 00:52:06;;;;;;;7.60;6.37;;;3.70;99.90;;;;;;5019981;28;20246;-83
2024/01/29 00:54:32;;;;;;;7.05;6.22;;;3.60;99.90;;;;;;5014438;28;20234;-83
2024/01/29 00:56:57;;;;;;;9.30;6.23;;;3.70;99.90;;;;;;5022805;28;20184;-83
2024/01/29 00:59:23;;;;;;;7.00;6.17;;;3.90;99.90;;;;;;5032837;28;20201;-83
2024/01/29 01:01:49;;;;;;;7.30;6.30;;;3.50;99.90;;;;;;5024500;28;20200;-83
2024/01/29 01:04:15;;;;;;;7.10;5.80;;;3.40;99.90;;;;;;5020140;28;20256;-83
2024/01/29 01:06:40;;;;;;;7.03;5.95;;;3.40;99.90;;;;;;5035790;28;20212;-84
2024/01/29 01:09:09;;;;;;;6.70;6.10;;;3.40;99.90;;;;;;5018736;28;20189;-83
2024/01/29 01:11:34;;;;;;;7.22;6.50;;;3.60;99.90;;;;;;5016065;28;20218;-83
2024/01/29 01:14:00;;;;;;;7.43;5.93;;;3.30;99.90;;;;;;5033610;28;20183;-83
2024/01/29 01:16:25;;;;;;;6.63;5.70;;;3.50;99.90;;;;;;5019420;28;20467;-83
2024/01/29 01:18:51;;;;;;;6.73;6.07;;;3.80;99.90;;;;;;5038294;28;20215;-83
2024/01/29 01:21:16;;;;;;;9.43;5.20;;;4.00;99.90;;;;;;5023945;28;20208;-83
2024/01/29 01:23:42;;;;;;;7.53;6.30;;;3.30;99.90;;;;;;5025487;28;20175;-83
2024/01/29 01:26:07;;;;;;;5.70;5.10;;;3.30;99.90;;;;;;5023773;28;20719;-83
2024/01/29 01:28:33;;;;;;;6.70;6.00;;;3.50;99.90;;;;;;5020341;28;20187;-83
2024/01/29 01:30:58;;;;;;;5.47;4.90;;;3.40;99.90;;;;;;5016765;28;20187;-84
2024/01/29 01:33:24;;;;;;;7.73;5.33;;;3.30;99.90;;;;;;5026556;28;20216;-85
2024/01/29 01:35:49;;;;;;;7.23;6.30;;;3.30;99.90;;;;;;5036811;28;20217;-85
2024/01/29 01:38:15;;;;;;;5.67;5.17;;;3.20;99.90;;;;;;5032157;28;20185;-83
2024/01/29 01:40:40;;;;;;;6.87;5.57;;;3.40;99.90;;;;;;5042309;28;20292;-83
2024/01/29 01:43:17;;;;;;;8.37;5.97;;;2.90;99.90;;;;;;5034155;28;20202;-82
2024/01/29 01:45:43;;;;;;;6.07;5.47;;;3.30;99.90;;;;;;5054430;28;20223;-83
2024/01/29 01:48:09;;;;;;;6.30;5.07;;;3.40;99.90;;;;;;5049134;28;20211;-83
2024/01/29 01:50:35;;;;;;;6.65;5.50;;;3.40;99.90;;;;;;5029506;28;20207;-83
2024/01/29 01:53:02;;;;;;;5.70;5.20;;;3.30;99.90;;;;;;5029417;28;20187;-83
2024/01/29 01:55:29;;;;;;;6.05;5.45;;;3.40;99.90;;;;;;5058751;28;20574;-83
2024/01/29 01:57:57;;;;;;;6.00;5.40;;;3.40;99.90;;;;;;5026584;28;20716;-83
2024/01/29 02:00:23;;;;;;;6.03;5.07;;;3.40;99.90;;;;;;5036692;28;20210;-82
2024/01/29 02:02:48;;;;;;;5.90;4.90;;;3.60;99.90;;;;;;5024926;28;20196;-82
2024/01/29 02:05:14;;;;;;;5.70;4.90;;;3.30;99.90;;;;;;5028007;28;20213;-82
2024/01/29 02:07:39;;;;;;;5.50;5.00;;;3.00;99.90;;;;;;5051794;28;20188;-82
2024/01/29 02:10:06;;;;;;;6.23;5.00;;;3.10;99.90;;;;;;5022253;28;20202;-82
2024/01/29 02:12:31;;;;;;;5.32;4.65;;;3.10;99.90;;;;;;5022334;28;20283;-82
2024/01/29 02:15:00;;;;;;;6.30;5.50;;;3.10;99.90;;;;;;5026685;28;20248;-83
2024/01/29 02:17:25;;;;;;;4.80;4.30;;;3.00;99.90;;;;;;5034982;28;20193;-83
2024/01/29 02:19:51;;;;;;;5.03;4.53;;;3.00;99.90;;;;;;5036576;28;20700;-83
2024/01/29 02:22:16;;;;;;;5.40;4.90;;;3.20;99.90;;;;;;5027083;28;20396;-83
2024/01/29 02:24:42;;;;;;;7.57;5.50;;;2.90;99.90;;;;;;5028123;28;20203;-83
2024/01/29 02:27:08;;;;;;;6.05;4.90;;;3.10;99.90;;;;;;5033350;28;20192;-83
2024/01/29 02:29:34;;;;;;;5.30;4.80;;;2.90;99.90;;;;;;5028161;28;20196;-83
2024/01/29 02:31:59;;;;;;;5.33;4.77;;;2.90;99.90;;;;;;5035046;28;20415;-83
2024/01/29 02:34:25;;;;;;;5.70;5.07;;;3.10;99.90;;;;;;5033768;28;20191;-83
2024/01/29 02:36:51;;;;;;;5.75;5.20;;;3.30;99.90;;;;;;5046778;28;20205;-83
2024/01/29 02:39:16;;;;;;;6.30;5.27;;;2.80;99.90;;;;;;5023776;28;20283;-83
2024/01/29 02:41:42;;;;;;;5.87;4.97;;;3.30;99.90;;;;;;5025541;28;20202;-83
2024/01/29 02:44:07;;;;;;;6.07;5.37;;;2.80;99.90;;;;;;5037053;28;20258;-84
2024/01/29 02:46:33;;;;;;;7.00;5.90;;;2.80;99.90;;;;;;5037267;28;20263;-83
2024/01/29 02:48:59;;;;;;;5.50;5.00;;;;;;;;;;5030509;28;20223;-83
2024/01/29 02:51:24;;;;;;;5.23;4.40;;;3.00;99.90;;;;;;5047422;28;20200;-83
2024/01/29 02:53:50;;;;;;;6.00;5.40;;;2.80;99.90;;;;;;5062454;28;20796;-83
2024/01/29 02:56:15;;;;;;;5.70;5.10;;;2.70;99.90;;;;;;5021894;28;20208;-83
2024/01/29 02:58:41;;;;;;;5.67;4.97;;;2.70;99.90;;;;;;5024569;28;20190;-83
2024/01/29 03:01:06;;;;;;;5.57;4.80;;;2.90;99.90;;;;;;5062961;28;20217;-83
2024/01/29 03:03:32;;;;;;;5.90;4.90;;;4.20;99.90;;;;;;5025799;28;20679;-83
2024/01/29 03:05:57;;;;;;;5.47;4.80;;;2.70;99.90;;;;;;5026887;28;20198;-84
2024/01/29 03:08:23;;;;;;;6.37;5.30;;;2.70;99.90;;;;;;5021728;28;20187;-83
2024/01/29 03:10:48;;;;;;;5.53;4.83;;;3.00;99.90;;;;;;5027436;28;20189;-83
2024/01/29 03:13:14;;;;;;;10.67;5.57;;;2.60;99.90;;;;;;5023141;28;20182;-83
2024/01/29 03:15:40;;;;;;;6.30;5.50;;;2.60;99.90;;;;;;5040352;28;20216;-83
2024/01/29 03:18:06;;;;;;;6.60;5.32;;;2.40;99.90;;;;;;5034703;28;20317;-83
2024/01/29 03:20:31;;;;;;;6.00;4.83;;;2.60;99.90;;;;;;5039040;28;20263;-83
2024/01/29 03:22:57;;;;;;;5.53;4.93;;;2.70;99.90;;;;;;5033571;28;20181;-83
2024/01/29 03:25:22;;;;;;;7.63;4.93;;;1.90;99.90;;;;;;5039807;28;20308;-83
2024/01/29 03:27:48;;;;;;;5.17;4.67;;;2.50;99.90;;;;;;5026591;28;20186;-83
2024/01/29 03:30:13;;;;;;;6.07;5.50;;;2.60;99.90;;;;;;5017784;28;20191;-83
2024/01/29 03:32:39;;;;;;;5.23;4.80;;;2.60;99.90;;;;;;5041806;28;20187;-83
2024/01/29 03:35:05;;;;;;;6.47;4.90;;;2.70;99.90;;;;;;5055061;28;20275;-83
2024/01/29 03:37:30;;;;;;;5.53;5.03;;;2.70;99.90;;;;;;5022268;28;20187;-83
2024/01/29 03:39:56;;;;;;;6.27;5.37;;;2.50;99.90;;;;;;5022256;28;20208;-83
2024/01/29 03:42:22;;;;;;;4.93;4.43;;;;;;;;;;5029835;28;20189;-83
2024/01/29 03:44:47;;;;;;;5.77;5.00;;;2.80;99.90;;;;;;5033891;28;20205;-83
2024/01/29 03:47:13;;;;;;;6.30;5.70;;;2.50;99.90;;;;;;5012349;28;20478;-83
2024/01/29 03:49:38;;;;;;;5.60;5.10;;;2.70;99.90;;;;;;5022487;28;20215;-83
2024/01/29 03:52:04;;;;;;;7.20;5.30;;;2.30;99.90;;;;;;5030360;28;20178;-83
2024/01/29 03:54:30;;;;;;;4.90;4.40;;;;;;;;;;5032249;28;20275;-83
2024/01/29 03:56:55;;;;;;;7.00;4.57;;;2.30;99.90;;;;;;5044345;28;20245;-83
2024/01/29 03:59:21;;;;;;;4.90;4.40;;;2.30;99.90;;;;;;5024124;28;20448;-83
2024/01/29 04:01:46;;;;;;;5.90;4.73;;;2.10;99.90;;;;;;5024146;28;20207;-83
2024/01/29 04:04:12;;;;;;;6.23;5.63;;;2.20;99.90;;;;;;5020034;28;20184;-83
2024/01/29 04:06:39;;;;;;;5.53;4.93;;;2.40;99.90;;;;;;5034520;28;20891;-83
2024/01/29 04:09:05;;;;;;;6.95;5.22;;;2.10;99.90;;;;;;5020124;28;20609;-83
2024/01/29 04:11:31;;;;;;;6.82;5.90;;;2.40;99.90;;;;;;5020772;28;20190;-83
2024/01/29 04:13:57;;;;;;;5.90;5.30;;;;;;;;;;5057953;28;20349;-83
2024/01/29 04:16:22;;;;;;;7.70;6.50;;;1.90;99.90;;;;;;5050695;28;20566;-83
2024/01/29 04:18:48;;;;;;;5.40;4.80;;;2.10;99.90;;;;;;5039481;28;20452;-83
2024/01/29 04:21:14;;;;;;;8.97;5.07;;;1.50;99.90;;;;;;5034890;28;20214;-84
2024/01/29 04:23:39;;;;;;;5.03;4.53;;;2.20;99.90;;;;;;5021687;28;20184;-82
2024/01/29 04:26:05;;;;;;;7.30;5.23;;;1.90;99.90;;;;;;5038673;28;20468;-84
2024/01/29 04:28:30;;;;;;;5.00;4.43;;;2.10;99.90;;;;;;5020923;28;20182;-82
2024/01/29 04:30:56;;;;;;;4.47;4.03;;;2.10;99.90;;;;;;5038440;28;20193;-84
2024/01/29 04:33:21;;;;;;;6.73;4.53;;;2.70;99.90;;;;;;5018536;28;20183;-82
2024/01/29 04:35:47;;;;;;;5.63;4.50;;;2.10;99.90;;;;;;5015669;28;21537;-85
2024/01/29 04:38:12;;;;;;;5.47;4.70;;;2.60;99.90;;;;;;5021226;28;20186;-82
2024/01/29 04:40:41;;;;;;;5.10;4.47;;;1.90;99.90;;;;;;5039159;28;20737;-85
2024/01/29 04:43:07;;;;;;;5.90;4.10;;;2.20;99.90;;;;;;5023273;28;20279;-85
2024/01/29 04:45:32;;;;;;;4.60;4.10;;;2.10;99.90;;;;;;5020353;28;20202;-82
2024/01/29 04:47:58;;;;;;;4.73;4.33;;;2.30;99.90;;;;;;5020824;28;20187;-82
2024/01/29 04:50:23;;;;;;;5.27;4.50;;;2.30;99.90;;;;;;5017618;28;20191;-82
2024/01/29 04:52:49;;;;;;;5.03;4.43;;;2.00;99.90;;;;;;5034233;28;20183;-84
2024/01/29 04:55:14;;;;;;;6.40;4.60;;;1.90;99.90;;;;;;5045348;28;20290;-84
2024/01/29 04:57:41;;;;;;;5.80;4.67;;;1.80;99.90;;;;;;5035741;28;20198;-85
2024/01/29 05:00:08;;;;;;;4.88;4.35;;;2.00;99.90;;;;;;5030996;28;20482;-84
2024/01/29 05:02:34;;;;;;;5.72;4.60;;;1.90;99.90;;;;;;5024944;28;20190;-85
2024/01/29 05:04:59;;;;;;;4.23;3.83;;;2.10;99.90;;;;;;5027127;28;20202;-84
2024/01/29 05:07:25;;;;;;;5.27;4.10;;;1.90;99.90;;;;;;5039479;28;20179;-84
2024/01/29 05:09:50;;;;;;;4.60;4.20;;;2.40;99.90;;;;;;5028035;28;20213;-84
2024/01/29 05:12:16;;;;;;;4.97;4.43;;;2.00;99.90;;;;;;5060039;28;20189;-84
2024/01/29 05:14:41;;;;;;;4.80;4.40;;;2.00;99.90;;;;;;5028208;28;20210;-84
2024/01/29 05:17:07;;;;;;;5.30;4.07;;;2.30;99.90;;;;;;5026881;28;20213;-84
2024/01/29 05:19:33;;;;;;;5.40;4.47;;;1.90;99.90;;;;;;5053805;28;20698;-82
2024/01/29 05:21:58;;;;;;;5.23;4.17;;;2.30;99.90;;;;;;5033212;28;20314;-85
2024/01/29 05:24:24;;;;;;;4.80;4.30;;;2.10;99.90;;;;;;5030341;28;20675;-84
2024/01/29 05:26:49;;;;;;;10.83;4.13;;;2.20;99.90;;;;;;5024008;28;20214;-84
2024/01/29 05:29:15;;;;;;;5.10;4.27;;;2.40;99.90;;;;;;5018631;28;20208;-84
2024/01/29 05:31:40;;;;;;;4.23;3.83;;;2.00;99.90;;;;;;5023136;28;20277;-84
2024/01/29 05:34:06;;;;;;;5.67;4.20;;;2.10;99.90;;;;;;5027803;28;20264;-84
2024/01/29 05:36:31;;;;;;;8.03;4.83;;;1.80;99.90;;;;;;5025114;28;20223;-85
2024/01/29 05:38:57;;;;;;;5.43;4.03;;;2.40;99.90;;;;;;5037761;28;20221;-85
2024/01/29 05:41:23;;;;;;;4.60;4.20;;;;;;;;;;5066280;28;20241;-84
2024/01/29 05:43:48;;;;;;;4.03;3.67;;;1.80;99.90;;;;;;5051533;28;20282;-88
2024/01/29 05:46:14;;;;;;;5.60;4.20;;;2.10;99.90;;;;;;5018797;28;20450;-89
2024/01/29 05:48:39;;;;;;;4.57;4.03;;;2.00;99.90;;;;;;5024932;28;20210;-82
2024/01/29 05:51:05;;;;;;;3.87;3.57;;;1.70;99.90;;;;;;5023414;28;20191;-86
2024/01/29 05:53:31;;;;;;;4.67;3.87;;;2.20;99.90;;;;;;5024152;28;20841;-84
2024/01/29 05:55:57;;;;;;;5.63;4.43;;;2.40;99.90;;;;;;5044384;28;20206;-84
2024/01/29 05:58:22;;;;;;;4.10;3.40;;;2.00;99.90;;;;;;5008763;28;20198;-85
2024/01/29 06:00:48;;;;;;;5.47;4.53;;;2.00;99.90;;;;;;5049895;28;20214;-84
2024/01/29 06:03:13;;;;;;;5.03;4.23;;;2.20;99.90;;;;;;5022887;28;20205;-84
2024/01/29 06:05:39;;;;;;;5.00;4.30;;;1.70;99.90;;;;;;5016596;28;20199;-85
2024/01/29 06:08:05;;;;;;;4.43;3.90;;;2.20;99.90;;;;;;5019883;28;20605;-84
2024/01/29 06:10:30;;;;;;;4.47;4.03;;;2.40;99.90;;;;;;5051416;28;20222;-84
2024/01/29 06:12:56;;;;;;;5.07;4.57;;;1.70;99.90;;;;;;5035477;28;20208;-84
2024/01/29 06:15:21;;;;;;;4.10;3.80;;;1.90;99.90;;;;;;5027017;28;20214;-85
2024/01/29 06:17:47;;;;;;;4.63;4.00;;;2.20;99.90;;;;;;5023500;28;20193;-85
2024/01/29 06:20:12;;;;;;;4.73;4.17;;;2.30;99.90;;;;;;5026138;28;20212;-86
2024/01/29 06:22:38;;;;;;;5.57;5.00;;;2.70;99.90;;;;;;5028614;28;20260;-85
2024/01/29 06:25:05;;;;;;;5.55;4.45;;;2.60;99.90;;;;;;5030890;28;20205;-86
2024/01/29 06:27:30;;;;;;;5.65;4.63;;;2.30;99.90;;;;;;5053981;28;20186;-86
2024/01/29 06:29:55;;;;;;;5.00;4.60;;;2.30;99.90;;;;;;5027370;28;20246;-85
2024/01/29 06:32:21;;;;;;;5.77;4.80;;;2.50;99.90;;;;;;5041215;28;20306;-85
2024/01/29 06:34:47;;;;;;;5.37;4.87;;;2.80;99.90;;;;;;5031577;28;20210;-86
2024/01/29 06:37:12;;;;;;;6.37;4.87;;;2.50;99.90;;;;;;5029969;28;20197;-86
2024/01/29 06:39:39;;;;;;;10.87;8.43;;;2.70;99.90;;;;;;5038287;28;20175;-86
2024/01/29 06:42:05;;;;;;;5.75;5.15;;;2.70;99.90;;;;;;5034041;28;20180;-86
2024/01/29 06:44:30;;;;;;;6.23;5.60;;;2.70;99.90;;;;;;5020013;28;20208;-85
2024/01/29 06:46:56;;;;;;;7.77;6.90;;;2.40;99.90;;;;;;5019833;28;20232;-85
2024/01/29 06:49:27;;;;;;;7.90;6.30;;;1.80;99.90;;;;;;5022892;28;20208;-85
2024/01/29 06:51:53;;;;;;;6.13;5.30;;;2.60;99.90;;;;;;5054295;28;20179;-85
2024/01/29 06:54:19;;;;;;;5.75;5.10;;;2.40;99.90;;;;;;5047875;28;20208;-85
2024/01/29 06:56:46;;;;;;;9.43;7.50;;;2.50;99.90;;;;;;5022730;28;20662;-86
2024/01/29 06:59:11;;;;;;;9.38;7.00;;;2.40;99.90;;;;;;5023552;28;20193;-86
2024/01/29 07:01:37;;;;;;;8.33;7.37;;;2.40;99.90;;;;;;5019580;28;20201;-86
2024/01/29 07:04:06;;;;;;;10.32;8.30;;;2.60;99.90;;;;;;5056742;28;20190;-85
2024/01/29 07:06:31;;;;;;;9.35;7.03;;;2.70;99.90;;;;;;5016875;28;20285;-85
2024/01/29 07:08:57;;;;;;;7.73;6.97;;;2.70;99.90;;;;;;5021817;28;20650;-86
2024/01/29 07:11:23;;;;;;;8.80;5.70;;;2.50;99.90;;;;;;5014855;28;20246;-86
2024/01/29 07:13:49;;;;;;;7.60;6.07;;;3.00;99.90;;;;;;5017599;28;20282;-86
2024/01/29 07:16:14;;;;;;;9.27;8.03;;;2.60;99.90;;;;;;5043275;28;20203;-86
2024/01/29 07:18:40;;;;;;;9.10;6.90;;;2.80;99.90;;;;;;5029698;28;20206;-86
2024/01/29 07:21:06;;;;;;;8.57;7.53;;;;;;;;;;5024421;28;20220;-87
2024/01/29 07:23:32;;;;;;;8.93;7.75;;;2.70;99.90;;;;;;5056194;28;20190;-85
2024/01/29 07:25:58;;;;;;;9.33;7.50;;;2.60;99.90;;;;;;5041788;28;20186;-86
2024/01/29 07:28:31;;;;;;;8.50;7.60;;;2.90;99.90;;;;;;5026012;28;20183;-86
2024/01/29 07:30:58;;;;;;;12.13;7.23;;;3.00;99.90;;;;;;5016061;28;20195;-86
2024/01/29 07:33:23;;;;;;;7.75;6.65;;;2.70;99.90;;;;;;5031358;28;20229;-85
2024/01/29 07:35:49;;;;;;;7.80;6.63;;;3.00;99.90;;;;;;5028828;28;20218;-86
2024/01/29 07:38:15;;;;;;;7.63;6.90;;;3.10;99.90;;;;;;5038060;28;20201;-85
2024/01/29 07:40:41;;;;;;;8.00;6.80;;;3.00;99.90;;;;;;5068525;28;20500;-85
2024/01/29 07:43:06;;;;;;;10.00;8.60;;;3.00;99.90;;;;;;5032560;28;20449;-85
2024/01/29 07:45:32;;;;;;;13.13;8.47;;;3.20;99.90;;;;;;5031046;28;20498;-85
2024/01/29 07:47:59;;;;;;;15.63;7.43;;;3.10;99.90;;;;;;5034217;28;20198;-85
2024/01/29 07:50:24;;;;;;;8.82;6.65;;;3.60;99.90;;;;;;5042665;28;20188;-86
2024/01/29 07:52:50;;;;;;;9.50;8.47;;;3.40;99.90;;;;;;5018766;28;20266;-85
2024/01/29 07:55:16;;;;;;;13.57;8.57;;;3.60;99.90;;;;;;5019206;28;20283;-84
2024/01/29 07:57:42;;;;;;;7.85;7.05;;;3.30;99.90;;;;;;5029533;28;20235;-85
2024/01/29 08:00:08;;;;;;;6.30;5.70;;;3.40;99.90;;;;;;5018780;28;20674;-86
2024/01/29 08:02:33;;;;;;;8.70;6.43;;;3.40;99.90;;;;;;5030668;28;20174;-86
2024/01/29 08:04:59;;;;;;;6.80;6.10;;;4.40;99.90;;;;;;5023385;28;20338;-84
2024/01/29 08:07:24;;;;;;;11.43;6.73;;;4.00;99.90;;;;;;5020060;28;20191;-85
2024/01/29 08:09:50;;;;;;;9.80;8.00;;;3.50;99.90;;;;;;5025181;28;20191;-85
2024/01/29 08:12:16;;;;;;;8.07;7.10;;;3.70;99.90;;;;;;5021898;28;20207;-85
2024/01/29 08:14:41;;;;;;;7.80;6.77;;;3.90;99.90;;;;;;5019182;28;20691;-86
2024/01/29 08:17:07;;;;;;;8.47;7.00;;;4.10;99.90;;;;;;5023379;28;20248;-86
2024/01/29 08:19:32;;;;;;;7.83;6.87;;;3.80;99.90;;;;;;5048835;28;20267;-85
2024/01/29 08:21:58;;;;;;;7.57;6.50;;;4.10;99.90;;;;;;5032597;28;20202;-85
2024/01/29 08:24:25;;;;;;;7.43;6.57;;;4.30;99.90;;;;;;5021270;28;20475;-86
2024/01/29 08:26:51;;;;;;;8.57;7.72;;;4.20;99.90;;;;;;5027394;28;20181;-84
2024/01/29 08:29:16;;;;;;;8.17;7.37;;;4.40;99.90;;;;;;5040105;28;20189;-85
2024/01/29 08:31:42;;;;;;;8.97;7.07;;;5.10;99.90;;;;;;5032117;28;20263;-84
2024/01/29 08:34:07;;;;;;;7.50;6.80;;;4.80;99.90;;;;;;5039165;28;20217;-84
2024/01/29 08:36:33;;;;;;;7.17;6.50;;;4.90;99.90;;;;;;5025648;28;20203;-85
2024/01/29 08:38:59;;;;;;;9.90;6.70;;;5.00;99.90;;;;;;5031960;28;20181;-85
2024/01/29 08:41:24;;;;;;;6.50;5.47;;;5.00;99.90;;;;;;5038492;28;20208;-83
2024/01/29 08:43:50;;;;;;;7.97;6.80;;;5.50;99.90;;;;;;5020999;28;20183;-84
2024/01/29 08:46:15;;;;;;;8.43;6.50;;;5.20;99.90;;;;;;5024202;28;20212;-84
2024/01/29 08:48:41;;;;;;;6.70;6.00;;;5.10;99.90;;;;;;5034810;28;20191;-84
2024/01/29 08:51:07;;;;;;;7.97;7.10;;;5.10;99.90;;;;;;5032749;28;20220;-86
2024/01/29 08:53:33;;;;;;;7.82;6.63;;;5.60;99.90;;;;;;5020218;28;20191;-85
2024/01/29 08:55:58;;;;;;;7.70;6.87;;;5.30;99.90;;;;;;5034920;28;20237;-84
2024/01/29 08:58:24;;;;;;;9.33;7.80;;;5.10;99.90;;;;;;5032425;28;20205;-86
2024/01/29 09:00:53;;;;;;;9.00;7.47;;;5.10;99.90;;;;;;5051988;28;20220;-85
2024/01/29 09:03:20;;;;;;;9.43;7.97;;;5.50;99.90;;;;;;5052295;28;20182;-85
2024/01/29 09:05:47;;;;;;;9.38;7.15;;;5.40;99.90;;;;;;5030592;28;20201;-85
2024/01/29 09:08:14;;;;;;;9.27;8.38;;;5.80;99.90;;;;;;5046247;28;20178;-85
2024/01/29 09:10:40;;;;;;;8.93;7.97;;;5.50;99.90;;;;;;5016274;28;21023;-85
2024/01/29 09:13:05;;;;;;;9.30;7.50;;;6.00;99.90;;;;;;5025523;28;20226;-86
2024/01/29 09:15:31;;;;;;;8.83;7.57;;;5.60;99.90;;;;;;5035630;28;20237;-85
2024/01/29 09:17:56;;;;;;;7.43;6.73;;;5.50;99.90;;;;;;5023144;28;20307;-85
2024/01/29 09:20:22;;;;;;;11.30;7.17;;;5.90;99.90;;;;;;5024174;28;20202;-86
2024/01/29 09:22:48;;;;;;;9.53;6.57;;;7.20;99.90;;;;;;5021780;28;20225;-85
2024/01/29 09:25:13;;;;;;;8.03;6.97;;;8.40;99.90;;;;;;5023529;28;20292;-84
2024/01/29 09:27:39;;;;;;;9.00;6.53;;;9.00;98.60;;;;;;5021420;28;20188;-85
2024/01/29 09:30:07;;;;;;;8.90;6.47;;;10.60;94.90;;;;;;5025735;28;20271;-85
2024/01/29 09:32:33;;;;;;;6.95;6.30;;;11.00;92.70;;;;;;5025935;28;20444;-85
2024/01/29 09:34:58;;;;;;;14.67;7.20;;;11.10;91.70;;;;;;5024155;28;20788;-87
2024/01/29 09:37:24;;;;;;;10.03;7.90;;;11.90;89.60;;;;;;5050638;28;20244;-87
2024/01/29 09:39:50;;;;;;;7.20;6.50;;;14.30;85.50;;;;;;5024776;28;20210;-86
2024/01/29 09:42:19;;;;;;;9.70;8.20;;;14.60;79.30;;;;;;5036955;28;20181;-85
2024/01/29 09:44:49;;;;;;;11.65;8.05;;;14.40;77.20;;;;;;5022426;28;20206;-84
2024/01/29 09:47:15;;;;;;;13.38;8.55;;;14.30;77.70;;;;;;5053871;28;20185;-84
2024/01/29 09:49:42;;;;;;;11.30;8.53;;;14.20;78.50;;;;;;5055304;28;20182;-85
2024/01/29 09:52:12;;;;;;;8.13;7.18;;;14.80;77.60;;;;;;5019528;28;20445;-86
2024/01/29 09:54:40;;;;;;;8.52;7.82;;;16.30;77.40;;;;;;5124975;23;20379;-86
2024/01/29 09:57:09;;;;;;;11.48;8.90;;;16.40;76.10;;;;;;4991859;28;20252;-86
2024/01/29 09:59:35;;;;;;;10.38;9.10;;;15.80;72.10;;;;;;4998182;28;20189;-87
2024/01/29 10:02:03;;;;;;;11.40;9.30;;;15.60;71.00;;;;;;4998924;28;20194;-86
2024/01/29 10:04:28;;;;;;;11.85;10.23;;;15.70;70.70;;;;;;5016444;28;20221;-87
2024/01/29 10:06:54;;;;;;;10.00;8.80;;;16.40;70.60;;;;;;5012672;28;20232;-87
2024/01/29 10:09:20;;;;;;;13.70;9.30;;;18.30;68.60;;;;;;5012842;28;20245;-87
2024/01/29 10:11:46;;;;;;;10.23;9.30;;;18.30;64.60;;;;;;5010047;28;20199;-86
2024/01/29 10:14:12;;;;;;;11.02;9.85;;;17.80;62.00;;;;;;4997876;28;20628;-87
2024/01/29 10:16:37;;;;;;;15.17;9.30;;;17.00;63.10;;;;;;4997873;28;20191;-86
2024/01/29 10:19:03;;;;;;;10.30;9.30;;;16.60;63.60;;;;;;4998958;28;20217;-87
2024/01/29 10:21:37;;;;;;;10.60;9.50;;;15.70;65.70;;;;;;5000138;28;20572;-85
2024/01/29 10:24:02;;;;;;;11.02;9.93;;;15.00;68.40;;;;;;4995989;28;20186;-86
2024/01/29 10:26:28;;;;;;;12.13;10.83;;;15.40;67.50;;;;;;5016227;28;20190;-86
2024/01/29 10:29:04;;;;;;;10.83;9.70;;;15.90;67.20;;;;;;4997827;28;20245;-86
2024/01/29 10:31:30;;;;;;;11.95;10.13;;;15.50;67.00;;;;;;4996707;28;20311;-86
2024/01/29 10:33:56;;;;;;;11.00;9.90;;;15.50;69.10;;;;;;4995251;28;20227;-86
2024/01/29 10:36:22;;;;;;;10.23;9.20;;;15.40;69.80;;;;;;5000813;28;20206;-86
2024/01/29 10:38:48;;;;;;;11.37;9.90;;;15.20;69.50;;;;;;4996777;28;20448;-85
2024/01/29 10:41:17;;;;;;;13.83;10.53;;;15.70;69.20;;;;;;4997536;28;20203;-87
2024/01/29 10:43:50;;;;;;;11.65;10.50;;;16.80;66.60;;;;;;4995873;28;20500;-86
2024/01/29 10:46:21;;;;;;;12.10;9.70;;;17.90;64.20;;;;;;5012180;28;20254;-87
2024/01/29 10:48:51;;;;;;;11.13;9.45;;;18.60;63.40;;;;;;4998437;28;20202;-87
2024/01/29 10:51:17;;;;;;;11.63;10.40;;;18.40;64.90;;;;;;4998956;28;20192;-87
2024/01/29 10:53:45;;;;;;;10.82;9.88;;;18.70;63.00;;;;;;5005333;28;20266;-88
2024/01/29 10:56:11;;;;;;;12.18;10.98;;;18.70;61.60;;;;;;5021049;28;20619;-86
2024/01/29 10:58:38;;;;;;;13.20;9.77;;;18.80;60.50;;;;;;4997516;28;20214;-86
2024/01/29 11:01:09;;;;;;;11.35;10.23;;;19.10;61.00;;;;;;5010954;28;20309;-87
2024/01/29 11:03:35;;;;;;;10.80;9.70;;;19.70;59.30;;;;;;4997414;28;20527;-87
2024/01/29 11:06:26;;;;;;;11.43;10.33;;;20.60;57.10;;;;;;4996287;28;20207;-85
2024/01/29 11:08:58;;;;;;;12.80;10.23;;;20.70;57.00;;;;;;4996065;28;20433;-87
2024/01/29 11:11:27;;;;;;;12.20;9.83;;;20.80;56.30;;;;;;4993713;28;20449;-86
2024/01/29 11:13:53;;;;;;;10.80;9.70;;;21.30;54.10;;;;;;4994558;28;21040;-86
2024/01/29 11:16:21;;;;;;;11.63;10.50;;;20.50;53.40;;;;;;4997016;28;20469;-87
2024/01/29 11:18:48;;;;;;;9.80;8.82;;;19.80;55.10;;;;;;5003950;28;20270;-87
2024/01/29 11:21:14;;;;;;;12.38;11.23;;;18.90;54.40;;;;;;5012039;28;20203;-87
2024/01/29 11:23:42;;;;;;;10.73;9.60;;;18.10;56.00;;;;;;4995667;28;20240;-86
2024/01/29 11:26:12;;;;;;;10.98;9.98;;;18.10;56.50;;;;;;4994339;28;20561;-87
2024/01/29 11:28:38;;;;;;;13.70;8.93;;;18.70;57.50;;;;;;4997810;28;20201;-86
2024/01/29 11:31:12;;;;;;;10.93;9.93;;;18.50;57.30;;;;;;4992322;28;20255;-87
2024/01/29 11:33:38;;;;;;;10.82;9.82;;;18.00;57.10;;;;;;4993364;28;20186;-85
2024/01/29 11:36:22;;;;;;;11.23;9.95;;;17.60;58.80;;;;;;4994168;28;20278;-86
2024/01/29 11:38:48;;;;;;;10.27;9.25;;;17.30;59.60;;;;;;4994880;28;20269;-86
2024/01/29 11:41:18;;;;;;;10.97;9.87;;;16.40;61.60;;;;;;4995664;28;20226;-86
2024/01/29 11:43:43;;;;;;;11.15;10.02;;;17.20;61.50;;;;;;4995013;28;20203;-87
2024/01/29 11:46:11;;;;;;;11.40;10.30;;;16.90;60.90;;;;;;4996406;28;20234;-86
2024/01/29 11:48:36;;;;;;;11.13;10.02;;;17.50;60.70;;;;;;4997511;28;20187;-86
2024/01/29 11:51:02;;;;;;;10.93;9.90;;;17.50;59.80;;;;;;4994892;28;20198;-86
2024/01/29 11:53:29;;;;;;;12.07;10.87;;;17.40;59.60;;;;;;4991424;28;20194;-86
2024/01/29 11:55:54;;;;;;;14.13;12.82;;;17.10;60.20;;;;;;4994861;28;20207;-85
2024/01/29 11:58:21;;;;;;;13.03;11.83;;;17.10;60.80;;;;;;4992210;28;20194;-84
2024/01/29 12:00:51;;;;;;;11.60;10.60;;;16.90;61.30;;;;;;4999730;28;20207;-86
2024/01/29 12:03:23;;;;;;;11.48;10.48;;;17.40;60.70;;;;;;5006403;28;20194;-86
2024/01/29 12:05:49;;;;;;;11.52;10.30;;;16.20;61.60;;;;;;4995755;28;20225;-86
2024/01/29 12:08:16;;;;;;;12.00;10.75;;;16.40;63.50;;;;;;5013144;28;20192;-85
2024/01/29 12:10:43;;;;;;;11.38;10.20;;;15.40;64.00;;;;;;4999677;28;20198;-86
2024/01/29 12:13:16;;;;;;;13.48;11.25;;;15.20;65.10;;;;;;5002307;28;20182;-86
2024/01/29 12:15:43;;;;;;;13.65;12.25;;;15.20;66.80;;;;;;5013873;28;20230;-85
2024/01/29 12:18:26;;;;;;;12.18;10.70;;;15.40;66.40;;;;;;5004976;28;20234;-86
2024/01/29 12:20:53;;;;;;;16.20;11.10;;;15.00;68.20;;;;;;5002037;28;20316;-86
2024/01/29 12:23:23;;;;;;;13.80;11.13;;;14.70;69.60;;;;;;5014663;28;20214;-85
2024/01/29 12:25:56;;;;;;;16.02;11.02;;;14.40;71.30;;;;;;5026592;28;20199;-85
2024/01/29 12:28:23;;;;;;;11.95;10.63;;;14.40;71.00;;;;;;4997352;28;20278;-86
2024/01/29 12:31:04;;;;;;;13.68;10.32;;;14.40;71.90;;;;;;4999943;28;20193;-86
2024/01/29 12:33:29;;;;;;;19.38;15.02;;;14.50;71.90;;;;;;4997417;28;20197;-85
2024/01/29 12:35:57;;;;;;;12.70;11.50;;;14.10;72.20;;;;;;4998736;28;20206;-86
2024/01/29 12:38:23;;;;;;;18.10;15.02;;;14.30;70.60;;;;;;4999137;28;20221;-85
2024/01/29 12:40:55;;;;;;;13.45;10.43;;;16.50;76.00;;;;;;5013617;28;20650;-86
2024/01/29 12:43:28;;;;;;;14.73;13.23;;;14.70;73.20;;;;;;5018898;28;20176;-84
2024/01/29 12:46:03;;;;;;;12.45;11.13;;;14.10;73.00;;;;;;4998175;28;20202;-85
2024/01/29 12:48:29;;;;;;;12.63;11.40;;;14.50;73.20;;;;;;4997746;28;20189;-85